LIC0209 LEVC-GCTS
Flight info
| Callsign | LIC0209 |
|---|---|
| Flight time | N/A |
| Altitude | 33000 |
| Route | ASTRO M985 MGA N851 VJF L82 RUNAX UL82 IBALU UN857 TERTO |
| Aircraft | A321/M-SDE3FGHIRWY/LB1 |
Departure
| Time | 2026-05-04 09:04 |
|---|---|
| Airport | Valencia Airport (LEVC) |
Arrival
| Time | N/A |
|---|---|
| Airport | Tenerife Sur Airport (GCTS) |
| Time | Latitude | Longitude | Altitude | Speed | Heading |
|---|---|---|---|---|---|
| 2026-05-04 08:50 | 39.49048 | -0.47387 | 216 ft | 0 kts | 22° |
| 2026-05-04 08:54 | 39.49033 | -0.47395 | 214 ft | 4 kts | 22° |
| 2026-05-04 08:55 | 39.49007 | -0.47406 | 209 ft | 4 kts | 8° |
| 2026-05-04 08:55 | 39.48981 | -0.47406 | 209 ft | 4 kts | 342° |
| 2026-05-04 08:55 | 39.48961 | -0.47390 | 209 ft | 2 kts | 306° |
| 2026-05-04 08:55 | 39.48957 | -0.47384 | 213 ft | 0 kts | 305° |
| 2026-05-04 09:01 | 39.49351 | -0.48738 | 209 ft | 20 kts | 296° |
| 2026-05-04 09:01 | 39.49413 | -0.48903 | 214 ft | 21 kts | 296° |
| 2026-05-04 09:01 | 39.49480 | -0.49070 | 211 ft | 21 kts | 298° |
| 2026-05-04 09:01 | 39.49554 | -0.49237 | 215 ft | 22 kts | 297° |
| 2026-05-04 09:02 | 39.49613 | -0.49418 | 217 ft | 22 kts | 294° |
| 2026-05-04 09:02 | 39.49679 | -0.49598 | 215 ft | 22 kts | 295° |
| 2026-05-04 09:02 | 39.49748 | -0.49780 | 215 ft | 23 kts | 295° |
| 2026-05-04 09:02 | 39.49768 | -0.49962 | 218 ft | 16 kts | 229° |
| 2026-05-04 09:03 | 39.49678 | -0.50017 | 215 ft | 13 kts | 208° |
| 2026-05-04 09:03 | 39.49636 | -0.49995 | 213 ft | 0 kts | 111° |
| 2026-05-04 09:03 | 39.49612 | -0.49934 | 218 ft | 40 kts | 117° |
| 2026-05-04 09:03 | 39.49351 | -0.49251 | 218 ft | 125 kts | 116° |
| 2026-05-04 09:04 | 39.48873 | -0.47999 | 287 ft | 177 kts | 116° |
| 2026-05-04 09:04 | 39.48338 | -0.46579 | 1100 ft | 175 kts | 116° |
| 2026-05-04 09:04 | 39.47779 | -0.45188 | 1972 ft | 175 kts | 119° |
| 2026-05-04 09:04 | 39.47139 | -0.43771 | 2512 ft | 192 kts | 126° |
| 2026-05-04 09:05 | 39.46310 | -0.42298 | 2787 ft | 213 kts | 129° |
| 2026-05-04 09:05 | 39.45340 | -0.40718 | 2998 ft | 237 kts | 130° |
| 2026-05-04 09:05 | 39.44249 | -0.38968 | 3375 ft | 262 kts | 130° |
| 2026-05-04 09:05 | 39.43084 | -0.37087 | 4188 ft | 272 kts | 129° |
| 2026-05-04 09:06 | 39.41903 | -0.35152 | 5147 ft | 276 kts | 129° |
| 2026-05-04 09:07 | 39.32351 | -0.37203 | 11162 ft | 280 kts | 242° |
| 2026-05-04 09:08 | 39.31504 | -0.39588 | 11432 ft | 304 kts | 248° |
| 2026-05-04 09:08 | 39.30844 | -0.42242 | 11972 ft | 316 kts | 254° |
| 2026-05-04 09:08 | 39.30421 | -0.45046 | 12765 ft | 320 kts | 260° |
| 2026-05-04 09:08 | 39.30251 | -0.47927 | 13610 ft | 324 kts | 266° |
| 2026-05-04 09:09 | 39.30350 | -0.50848 | 14376 ft | 328 kts | 272° |
| 2026-05-04 09:09 | 39.30736 | -0.53767 | 15092 ft | 333 kts | 279° |
| 2026-05-04 09:09 | 39.31420 | -0.56655 | 15819 ft | 340 kts | 285° |
| 2026-05-04 09:09 | 39.32406 | -0.59467 | 16515 ft | 348 kts | 292° |
| 2026-05-04 09:10 | 39.33698 | -0.62149 | 17190 ft | 356 kts | 300° |
| 2026-05-04 09:10 | 39.35228 | -0.64695 | 17862 ft | 360 kts | 299° |
| 2026-05-04 09:10 | 39.36265 | -0.67567 | 18433 ft | 350 kts | 278° |
| 2026-05-04 09:10 | 39.36357 | -0.70658 | 18972 ft | 343 kts | 257° |
| 2026-05-04 09:11 | 39.35509 | -0.73504 | 19523 ft | 341 kts | 236° |
| 2026-05-04 09:11 | 39.33868 | -0.75714 | 20029 ft | 345 kts | 217° |
| 2026-05-04 09:11 | 39.31865 | -0.77443 | 20583 ft | 346 kts | 220° |
| 2026-05-04 09:11 | 39.30182 | -0.79641 | 21105 ft | 345 kts | 230° |
| 2026-05-04 09:12 | 39.28653 | -0.82040 | 21699 ft | 346 kts | 232° |
| 2026-05-04 09:12 | 39.27181 | -0.84501 | 22256 ft | 348 kts | 233° |
| 2026-05-04 09:14 | 39.16797 | -1.02244 | 25638 ft | 360 kts | 233° |
| 2026-05-04 09:14 | 39.15285 | -1.04780 | 26076 ft | 363 kts | 233° |
| 2026-05-04 09:14 | 39.13743 | -1.07364 | 26504 ft | 365 kts | 233° |
| 2026-05-04 09:14 | 39.12191 | -1.09963 | 26908 ft | 367 kts | 233° |
| 2026-05-04 09:15 | 39.10628 | -1.12580 | 27327 ft | 369 kts | 233° |
| 2026-05-04 09:15 | 39.09063 | -1.15201 | 27791 ft | 370 kts | 233° |
| 2026-05-04 09:15 | 39.07492 | -1.17837 | 28196 ft | 372 kts | 233° |
| 2026-05-04 09:15 | 39.05911 | -1.20487 | 28597 ft | 374 kts | 233° |
| 2026-05-04 09:17 | 38.92946 | -1.42119 | 31423 ft | 384 kts | 233° |
| 2026-05-04 09:18 | 38.91316 | -1.44827 | 31846 ft | 383 kts | 233° |
| 2026-05-04 09:18 | 38.89691 | -1.47522 | 32251 ft | 381 kts | 233° |
| 2026-05-04 09:18 | 38.88068 | -1.50209 | 32617 ft | 380 kts | 233° |
| 2026-05-04 09:18 | 38.86451 | -1.52889 | 32990 ft | 380 kts | 233° |
| 2026-05-04 09:19 | 38.84852 | -1.55534 | 33024 ft | 369 kts | 233° |
| 2026-05-04 09:19 | 38.83296 | -1.58105 | 33021 ft | 363 kts | 233° |
| 2026-05-04 09:19 | 38.80217 | -1.63193 | 33019 ft | 360 kts | 233° |
| 2026-05-04 09:20 | 38.77151 | -1.68260 | 33020 ft | 359 kts | 233° |
| 2026-05-04 09:20 | 38.74081 | -1.73314 | 33021 ft | 359 kts | 233° |
| 2026-05-04 09:21 | 38.71006 | -1.78363 | 33016 ft | 359 kts | 233° |
| 2026-05-04 09:21 | 38.67936 | -1.83413 | 33020 ft | 359 kts | 233° |
| 2026-05-04 09:22 | 38.64865 | -1.88456 | 33014 ft | 359 kts | 233° |
| 2026-05-04 09:22 | 38.61781 | -1.93496 | 33005 ft | 360 kts | 233° |
| 2026-05-04 09:23 | 38.58691 | -1.98536 | 33007 ft | 360 kts | 233° |
| 2026-05-04 09:23 | 38.55605 | -2.03572 | 33009 ft | 360 kts | 233° |
| 2026-05-04 09:25 | 38.43240 | -2.23689 | 33017 ft | 360 kts | 233° |
| 2026-05-04 09:26 | 38.40138 | -2.28708 | 33016 ft | 360 kts | 233° |
| 2026-05-04 09:26 | 38.37036 | -2.33721 | 33041 ft | 360 kts | 233° |
| 2026-05-04 09:27 | 38.33700 | -2.38488 | 33032 ft | 361 kts | 229° |
| 2026-05-04 09:27 | 38.30237 | -2.43128 | 33031 ft | 362 kts | 229° |
| 2026-05-04 09:28 | 38.26779 | -2.47764 | 33031 ft | 360 kts | 229° |
| 2026-05-04 09:28 | 38.23326 | -2.52397 | 33031 ft | 361 kts | 229° |
| 2026-05-04 09:29 | 38.19873 | -2.57026 | 33032 ft | 361 kts | 229° |
| 2026-05-04 09:29 | 38.16408 | -2.61652 | 33038 ft | 361 kts | 229° |
| 2026-05-04 09:30 | 38.12939 | -2.66271 | 33010 ft | 362 kts | 229° |
| 2026-05-04 09:30 | 38.09493 | -2.70864 | 33049 ft | 361 kts | 229° |
| 2026-05-04 09:31 | 38.06028 | -2.75480 | 33056 ft | 361 kts | 229° |
| 2026-05-04 09:31 | 38.02571 | -2.80082 | 33044 ft | 360 kts | 229° |
| 2026-05-04 09:32 | 37.99114 | -2.84666 | 33045 ft | 360 kts | 229° |
| 2026-05-04 09:34 | 37.85266 | -3.02969 | 33015 ft | 360 kts | 229° |
| 2026-05-04 09:34 | 37.81803 | -3.07536 | 33038 ft | 359 kts | 229° |
| 2026-05-04 09:35 | 37.78340 | -3.12096 | 33032 ft | 359 kts | 229° |
| 2026-05-04 09:35 | 37.74871 | -3.16643 | 33028 ft | 359 kts | 229° |
| 2026-05-04 09:37 | 37.60975 | -3.34829 | 33018 ft | 361 kts | 229° |
| 2026-05-04 09:38 | 37.57485 | -3.39381 | 33021 ft | 361 kts | 229° |
| 2026-05-04 09:38 | 37.53994 | -3.43922 | 33041 ft | 360 kts | 229° |
| 2026-05-04 09:39 | 37.50508 | -3.48458 | 33041 ft | 360 kts | 229° |
| 2026-05-04 09:39 | 37.47024 | -3.52981 | 33041 ft | 360 kts | 229° |
| 2026-05-04 09:40 | 37.43564 | -3.57466 | 33036 ft | 359 kts | 229° |
| 2026-05-04 09:40 | 37.40078 | -3.61968 | 32993 ft | 359 kts | 229° |
| 2026-05-04 09:42 | 37.26090 | -3.80019 | 33039 ft | 361 kts | 229° |
| 2026-05-04 09:43 | 37.22582 | -3.84525 | 33067 ft | 361 kts | 230° |
| 2026-05-04 09:43 | 37.19076 | -3.89028 | 33065 ft | 360 kts | 230° |
| 2026-05-04 09:44 | 37.15576 | -3.93515 | 33022 ft | 360 kts | 230° |
| 2026-05-04 09:46 | 37.01535 | -4.11458 | 33017 ft | 361 kts | 229° |
| 2026-05-04 09:46 | 36.98013 | -4.15933 | 33021 ft | 361 kts | 229° |
| 2026-05-04 09:47 | 36.94491 | -4.20406 | 33022 ft | 361 kts | 229° |
| 2026-05-04 09:49 | 36.80933 | -4.38847 | 33014 ft | 358 kts | 246° |
| 2026-05-04 09:51 | 36.74941 | -4.59215 | 33044 ft | 357 kts | 250° |
| 2026-05-04 09:51 | 36.73240 | -4.65027 | 33045 ft | 356 kts | 250° |
| 2026-05-04 09:52 | 36.71828 | -4.69847 | 33045 ft | 356 kts | 250° |
| 2026-05-04 09:52 | 36.70127 | -4.75637 | 33052 ft | 355 kts | 250° |
| 2026-05-04 09:53 | 36.68427 | -4.81417 | 33051 ft | 355 kts | 250° |
| 2026-05-04 09:53 | 36.66725 | -4.87191 | 33042 ft | 355 kts | 250° |
| 2026-05-04 09:54 | 36.65014 | -4.92955 | 33042 ft | 354 kts | 250° |
| 2026-05-04 09:54 | 36.63306 | -4.98720 | 33031 ft | 355 kts | 250° |
| 2026-05-04 09:55 | 36.61594 | -5.04471 | 33045 ft | 355 kts | 250° |
| 2026-05-04 09:55 | 36.59879 | -5.10225 | 33046 ft | 355 kts | 250° |
| 2026-05-04 09:56 | 36.58161 | -5.15982 | 33047 ft | 355 kts | 250° |
| 2026-05-04 09:56 | 36.56445 | -5.21732 | 33058 ft | 355 kts | 250° |
| 2026-05-04 09:57 | 36.54731 | -5.27480 | 33060 ft | 354 kts | 250° |
| 2026-05-04 09:57 | 36.53006 | -5.33217 | 33059 ft | 354 kts | 250° |
| 2026-05-04 09:58 | 36.51278 | -5.38953 | 33075 ft | 354 kts | 250° |
| 2026-05-04 09:58 | 36.49143 | -5.44465 | 33076 ft | 355 kts | 242° |
| 2026-05-04 10:00 | 36.39138 | -5.65639 | 33079 ft | 355 kts | 242° |
| 2026-05-04 10:04 | 36.21027 | -6.02298 | 33081 ft | 359 kts | 237° |
| 2026-05-04 10:04 | 36.18000 | -6.07222 | 33089 ft | 359 kts | 237° |
| 2026-05-04 10:05 | 36.14976 | -6.12138 | 33097 ft | 359 kts | 237° |
| 2026-05-04 10:05 | 36.11948 | -6.17055 | 33100 ft | 359 kts | 237° |
| 2026-05-04 10:06 | 36.08919 | -6.21972 | 33087 ft | 359 kts | 237° |
| 2026-05-04 10:06 | 36.05881 | -6.26901 | 33086 ft | 362 kts | 237° |
| 2026-05-04 10:08 | 35.95169 | -6.44194 | 33106 ft | 362 kts | 236° |
| 2026-05-04 10:08 | 35.92099 | -6.49132 | 33120 ft | 362 kts | 237° |
| 2026-05-04 10:09 | 35.89034 | -6.54058 | 33122 ft | 362 kts | 237° |
| 2026-05-04 10:09 | 35.85971 | -6.58978 | 33116 ft | 361 kts | 237° |
| 2026-05-04 10:10 | 35.82907 | -6.63890 | 33116 ft | 361 kts | 237° |
| 2026-05-04 10:10 | 35.79845 | -6.68794 | 33112 ft | 361 kts | 237° |
| 2026-05-04 10:11 | 35.76803 | -6.73664 | 33107 ft | 361 kts | 236° |
| 2026-05-04 10:11 | 35.73720 | -6.78590 | 33111 ft | 361 kts | 237° |
| 2026-05-04 10:12 | 35.70671 | -6.83447 | 33106 ft | 361 kts | 236° |
| 2026-05-04 10:12 | 35.67579 | -6.88365 | 33102 ft | 361 kts | 236° |
| 2026-05-04 10:13 | 35.64523 | -6.93219 | 33120 ft | 361 kts | 236° |
| 2026-05-04 10:13 | 35.61447 | -6.98105 | 33120 ft | 361 kts | 236° |
| 2026-05-04 10:14 | 35.58369 | -7.02989 | 33120 ft | 361 kts | 236° |
| 2026-05-04 10:16 | 35.45965 | -7.22578 | 33119 ft | 365 kts | 236° |
| 2026-05-04 10:16 | 35.42848 | -7.27492 | 33126 ft | 365 kts | 236° |
| 2026-05-04 10:17 | 35.39722 | -7.32395 | 33125 ft | 365 kts | 236° |
| 2026-05-04 10:19 | 35.27215 | -7.51978 | 33132 ft | 365 kts | 236° |
| 2026-05-04 10:19 | 35.24080 | -7.56870 | 33110 ft | 366 kts | 236° |
| 2026-05-04 10:20 | 35.20936 | -7.61772 | 33123 ft | 366 kts | 236° |
| 2026-05-04 10:20 | 35.17787 | -7.66677 | 33123 ft | 367 kts | 236° |
| 2026-05-04 10:21 | 35.14630 | -7.71582 | 33126 ft | 367 kts | 236° |
| 2026-05-04 10:21 | 35.11470 | -7.76487 | 33128 ft | 367 kts | 236° |
| 2026-05-04 10:22 | 35.06722 | -7.83837 | 33129 ft | 368 kts | 236° |
| 2026-05-04 10:23 | 35.03557 | -7.88732 | 33131 ft | 368 kts | 236° |
| 2026-05-04 10:25 | 34.90908 | -8.08231 | 33124 ft | 366 kts | 236° |
| 2026-05-04 10:25 | 34.87745 | -8.13090 | 33133 ft | 366 kts | 236° |
| 2026-05-04 10:26 | 34.84582 | -8.17941 | 33136 ft | 366 kts | 236° |
| 2026-05-04 10:26 | 34.81416 | -8.22786 | 33140 ft | 366 kts | 236° |
| 2026-05-04 10:27 | 34.78247 | -8.27624 | 33137 ft | 366 kts | 236° |
| 2026-05-04 10:27 | 34.75084 | -8.32459 | 33137 ft | 365 kts | 236° |
| 2026-05-04 10:28 | 34.71915 | -8.37297 | 33133 ft | 366 kts | 236° |
| 2026-05-04 10:28 | 34.68742 | -8.42129 | 33113 ft | 365 kts | 236° |
| 2026-05-04 10:29 | 34.65573 | -8.46945 | 33131 ft | 365 kts | 236° |
| 2026-05-04 10:29 | 34.62409 | -8.51753 | 33140 ft | 364 kts | 236° |
| 2026-05-04 10:30 | 34.59248 | -8.56547 | 33145 ft | 364 kts | 236° |
| 2026-05-04 10:30 | 34.56091 | -8.61325 | 33147 ft | 363 kts | 236° |
| 2026-05-04 10:31 | 34.52937 | -8.66109 | 33147 ft | 363 kts | 236° |
| 2026-05-04 10:32 | 34.41140 | -8.82104 | 33106 ft | 372 kts | 225° |
| 2026-05-04 10:33 | 34.37082 | -8.85993 | 33118 ft | 372 kts | 225° |
| 2026-05-04 10:33 | 34.33029 | -8.89893 | 33136 ft | 373 kts | 225° |
| 2026-05-04 10:34 | 34.28994 | -8.93761 | 33136 ft | 373 kts | 225° |
| 2026-05-04 10:34 | 34.24933 | -8.97659 | 33140 ft | 373 kts | 225° |
| 2026-05-04 10:35 | 34.20866 | -9.01552 | 33139 ft | 373 kts | 225° |
| 2026-05-04 10:35 | 34.16793 | -9.05436 | 33131 ft | 373 kts | 225° |
| 2026-05-04 10:36 | 34.12728 | -9.09325 | 33116 ft | 374 kts | 225° |
| 2026-05-04 10:36 | 34.08612 | -9.13265 | 33128 ft | 379 kts | 224° |
| 2026-05-04 10:37 | 34.04467 | -9.17202 | 33133 ft | 380 kts | 224° |
| 2026-05-04 10:37 | 34.00315 | -9.21144 | 33136 ft | 380 kts | 224° |
| 2026-05-04 10:39 | 33.86481 | -9.34269 | 33139 ft | 380 kts | 224° |
| 2026-05-04 10:40 | 33.82320 | -9.38206 | 33113 ft | 381 kts | 224° |
| 2026-05-04 10:40 | 33.78314 | -9.41993 | 33120 ft | 382 kts | 224° |
| 2026-05-04 10:41 | 33.74124 | -9.45936 | 33126 ft | 383 kts | 224° |
| 2026-05-04 10:41 | 33.69929 | -9.49888 | 33121 ft | 383 kts | 224° |
| 2026-05-04 10:42 | 33.65727 | -9.53839 | 33122 ft | 384 kts | 223° |
| 2026-05-04 10:42 | 33.61519 | -9.57801 | 33130 ft | 385 kts | 223° |
| 2026-05-04 10:43 | 33.57305 | -9.61758 | 33109 ft | 385 kts | 223° |
| 2026-05-04 10:45 | 33.40423 | -9.77558 | 33135 ft | 385 kts | 223° |
| 2026-05-04 10:45 | 33.36199 | -9.81498 | 33137 ft | 385 kts | 223° |
| 2026-05-04 10:46 | 33.31973 | -9.85434 | 33136 ft | 385 kts | 223° |
| 2026-05-04 10:46 | 33.27743 | -9.89361 | 33111 ft | 385 kts | 222° |
| 2026-05-04 10:47 | 33.23516 | -9.93280 | 33124 ft | 385 kts | 222° |
| 2026-05-04 10:47 | 33.19295 | -9.97200 | 33130 ft | 384 kts | 222° |
| 2026-05-04 10:49 | 33.02424 | -10.12805 | 33142 ft | 384 kts | 222° |
| 2026-05-04 10:50 | 32.98199 | -10.16704 | 33141 ft | 384 kts | 222° |
| 2026-05-04 10:52 | 32.81266 | -10.32260 | 33135 ft | 385 kts | 222° |
| 2026-05-04 10:52 | 32.77021 | -10.36132 | 33136 ft | 385 kts | 222° |
| 2026-05-04 10:54 | 32.60043 | -10.51622 | 33124 ft | 387 kts | 221° |
| 2026-05-04 10:56 | 32.42945 | -10.67152 | 33101 ft | 388 kts | 221° |
| 2026-05-04 10:57 | 32.38652 | -10.71039 | 33111 ft | 389 kts | 221° |
| 2026-05-04 10:57 | 32.34350 | -10.74926 | 33117 ft | 390 kts | 221° |
| 2026-05-04 10:58 | 32.30036 | -10.78816 | 33122 ft | 390 kts | 221° |
| 2026-05-04 10:58 | 32.25714 | -10.82707 | 33125 ft | 390 kts | 221° |
| 2026-05-04 10:59 | 32.21393 | -10.86598 | 33127 ft | 391 kts | 221° |
| 2026-05-04 10:59 | 32.17077 | -10.90487 | 33132 ft | 391 kts | 221° |
| 2026-05-04 11:00 | 32.12750 | -10.94373 | 33110 ft | 391 kts | 221° |
| 2026-05-04 11:02 | 31.95454 | -11.09873 | 33130 ft | 392 kts | 221° |
| 2026-05-04 11:05 | 31.62915 | -11.38876 | 33127 ft | 391 kts | 221° |
| 2026-05-04 11:06 | 31.58577 | -11.42736 | 33133 ft | 391 kts | 221° |
| 2026-05-04 11:06 | 31.54263 | -11.46561 | 33106 ft | 391 kts | 221° |
| 2026-05-04 11:10 | 31.24061 | -11.73269 | 33118 ft | 387 kts | 222° |
| 2026-05-04 11:12 | 31.06926 | -11.88318 | 33139 ft | 384 kts | 222° |
| 2026-05-04 11:12 | 31.02655 | -11.92055 | 33142 ft | 384 kts | 222° |
| 2026-05-04 11:13 | 30.98385 | -11.95800 | 33140 ft | 384 kts | 222° |
| 2026-05-04 11:13 | 30.94119 | -11.99538 | 33119 ft | 383 kts | 222° |
| 2026-05-04 11:14 | 30.89853 | -12.03256 | 33129 ft | 383 kts | 222° |
| 2026-05-04 11:16 | 30.72855 | -12.18050 | 33135 ft | 382 kts | 222° |
| 2026-05-04 11:16 | 30.68600 | -12.21741 | 33132 ft | 382 kts | 222° |
| 2026-05-04 11:17 | 30.64345 | -12.25427 | 33116 ft | 381 kts | 223° |
| 2026-05-04 11:19 | 30.47437 | -12.40040 | 33148 ft | 378 kts | 223° |
| 2026-05-04 11:19 | 30.43218 | -12.43663 | 33146 ft | 377 kts | 223° |
| 2026-05-04 11:20 | 30.39008 | -12.47284 | 33141 ft | 377 kts | 223° |
| 2026-05-04 11:20 | 30.34801 | -12.50896 | 33114 ft | 376 kts | 223° |
| 2026-05-04 11:23 | 30.14357 | -12.68354 | 33140 ft | 373 kts | 223° |
| 2026-05-04 11:25 | 29.95910 | -12.85382 | 33143 ft | 370 kts | 225° |
| 2026-05-04 11:27 | 29.77936 | -13.02217 | 33133 ft | 370 kts | 225° |
| 2026-05-04 11:28 | 29.73940 | -13.05953 | 33105 ft | 370 kts | 225° |
| 2026-05-04 11:28 | 29.69947 | -13.09679 | 33118 ft | 370 kts | 225° |
| 2026-05-04 11:29 | 29.65954 | -13.13397 | 33115 ft | 369 kts | 225° |
| 2026-05-04 11:29 | 29.61964 | -13.17114 | 33120 ft | 369 kts | 225° |
| 2026-05-04 11:33 | 29.34030 | -13.43019 | 33118 ft | 369 kts | 225° |
| 2026-05-04 11:33 | 29.30036 | -13.46714 | 33120 ft | 369 kts | 225° |
| 2026-05-04 11:34 | 29.26045 | -13.50406 | 33120 ft | 369 kts | 225° |
| 2026-05-04 11:34 | 29.22047 | -13.54094 | 33120 ft | 369 kts | 224° |
| 2026-05-04 11:35 | 29.18076 | -13.57745 | 33113 ft | 369 kts | 224° |
| 2026-05-04 11:35 | 29.14077 | -13.61417 | 33110 ft | 368 kts | 224° |
| 2026-05-04 11:36 | 29.10080 | -13.65086 | 33087 ft | 368 kts | 224° |
| 2026-05-04 11:36 | 29.06083 | -13.68753 | 33093 ft | 368 kts | 224° |
| 2026-05-04 11:37 | 29.02088 | -13.72416 | 33096 ft | 368 kts | 224° |
| 2026-05-04 11:37 | 28.98090 | -13.76080 | 33100 ft | 368 kts | 224° |
| 2026-05-04 11:38 | 28.94093 | -13.79738 | 33104 ft | 368 kts | 224° |
| 2026-05-04 11:38 | 28.90095 | -13.83393 | 33108 ft | 368 kts | 224° |
| 2026-05-04 11:39 | 28.86097 | -13.87048 | 33110 ft | 368 kts | 224° |
| 2026-05-04 11:41 | 28.72797 | -13.99167 | 33103 ft | 367 kts | 224° |
| 2026-05-04 11:41 | 28.68807 | -14.02792 | 33106 ft | 367 kts | 224° |
| 2026-05-04 11:42 | 28.64822 | -14.06414 | 33112 ft | 366 kts | 224° |
| 2026-05-04 11:42 | 28.60835 | -14.10030 | 33107 ft | 366 kts | 224° |
| 2026-05-04 11:43 | 28.56846 | -14.13641 | 33110 ft | 366 kts | 224° |
| 2026-05-04 11:43 | 28.52863 | -14.17254 | 33106 ft | 366 kts | 224° |
| 2026-05-04 11:44 | 28.48878 | -14.20867 | 33083 ft | 366 kts | 224° |
| 2026-05-04 11:44 | 28.44896 | -14.24470 | 33094 ft | 366 kts | 224° |
| 2026-05-04 11:45 | 28.40915 | -14.28063 | 33104 ft | 365 kts | 224° |
| 2026-05-04 11:45 | 28.36934 | -14.31654 | 33103 ft | 365 kts | 224° |
| 2026-05-04 11:46 | 28.32952 | -14.35238 | 33104 ft | 365 kts | 224° |
| 2026-05-04 11:46 | 28.28972 | -14.38817 | 33105 ft | 365 kts | 224° |
| 2026-05-04 11:47 | 28.24991 | -14.42397 | 33103 ft | 365 kts | 224° |
| 2026-05-04 11:47 | 28.21013 | -14.45974 | 33101 ft | 365 kts | 224° |
| 2026-05-04 11:48 | 28.17035 | -14.49549 | 33077 ft | 365 kts | 224° |
| 2026-05-04 11:48 | 28.13056 | -14.53117 | 33088 ft | 365 kts | 224° |
| 2026-05-04 11:49 | 28.09081 | -14.56679 | 33091 ft | 364 kts | 224° |
| 2026-05-04 11:49 | 28.05108 | -14.60240 | 33110 ft | 364 kts | 224° |
| 2026-05-04 11:50 | 28.01347 | -14.64010 | 33109 ft | 357 kts | 234° |
| 2026-05-04 11:50 | 27.99106 | -14.68898 | 33104 ft | 354 kts | 254° |
| 2026-05-04 11:51 | 27.97944 | -14.74308 | 33105 ft | 354 kts | 255° |
| 2026-05-04 11:51 | 27.96774 | -14.79718 | 33099 ft | 354 kts | 255° |
| 2026-05-04 11:52 | 27.95598 | -14.85123 | 33103 ft | 354 kts | 255° |
| 2026-05-04 11:52 | 27.94428 | -14.90529 | 33097 ft | 354 kts | 255° |
| 2026-05-04 11:53 | 27.93250 | -14.95936 | 33101 ft | 354 kts | 255° |
| 2026-05-04 11:53 | 27.92068 | -15.01346 | 33102 ft | 354 kts | 255° |
| 2026-05-04 11:55 | 27.87334 | -15.22962 | 33100 ft | 354 kts | 255° |
| 2026-05-04 11:56 | 27.86140 | -15.28368 | 33106 ft | 355 kts | 255° |
| 2026-05-04 11:56 | 27.84949 | -15.33774 | 33105 ft | 354 kts | 255° |
| 2026-05-04 11:57 | 27.83755 | -15.39173 | 33103 ft | 354 kts | 255° |
| 2026-05-04 11:57 | 27.82978 | -15.44667 | 32925 ft | 359 kts | 267° |
| 2026-05-04 11:57 | 27.83184 | -15.47489 | 32670 ft | 363 kts | 272° |
| 2026-05-04 11:58 | 27.83490 | -15.50317 | 32411 ft | 363 kts | 271° |
| 2026-05-04 11:58 | 27.83761 | -15.53154 | 32152 ft | 364 kts | 271° |
| 2026-05-04 11:58 | 27.84009 | -15.55998 | 31922 ft | 364 kts | 271° |
| 2026-05-04 11:58 | 27.84247 | -15.58843 | 31671 ft | 365 kts | 270° |
| 2026-05-04 11:59 | 27.84484 | -15.61698 | 31420 ft | 365 kts | 270° |
| 2026-05-04 11:59 | 27.84722 | -15.64544 | 30888 ft | 361 kts | 270° |
| 2026-05-04 11:59 | 27.84960 | -15.67358 | 30250 ft | 358 kts | 270° |
| 2026-05-04 11:59 | 27.84897 | -15.70134 | 29224 ft | 348 kts | 260° |
| 2026-05-04 12:00 | 27.84614 | -15.72815 | 28259 ft | 344 kts | 260° |
| 2026-05-04 12:00 | 27.84319 | -15.75515 | 27313 ft | 348 kts | 260° |
| 2026-05-04 12:00 | 27.84020 | -15.78233 | 26397 ft | 350 kts | 261° |
| 2026-05-04 12:00 | 27.83718 | -15.80975 | 25500 ft | 353 kts | 261° |
| 2026-05-04 12:03 | 27.81121 | -16.04586 | 20599 ft | 309 kts | 262° |
| 2026-05-04 12:03 | 27.80854 | -16.06986 | 20173 ft | 308 kts | 262° |
| 2026-05-04 12:03 | 27.80589 | -16.09378 | 19752 ft | 306 kts | 262° |
| 2026-05-04 12:03 | 27.80323 | -16.11759 | 19314 ft | 305 kts | 262° |
| 2026-05-04 12:04 | 27.80058 | -16.14131 | 18886 ft | 304 kts | 262° |
| 2026-05-04 12:04 | 27.79793 | -16.16496 | 18452 ft | 303 kts | 262° |
| 2026-05-04 12:04 | 27.79618 | -16.18056 | 18134 ft | 302 kts | 262° |
| 2026-05-04 12:04 | 27.79266 | -16.21189 | 17537 ft | 299 kts | 262° |
| 2026-05-04 12:05 | 27.79093 | -16.22729 | 17258 ft | 298 kts | 262° |